To NAV CANADA Home Page Login to a new session Search on AWWS site Feedback and Comments Disclaimer Vers la page française équivalente Tips FAQ What's new on the site To the Forecasts and Observations / NOTAM section To "File a Flight Plan" website Publications and other links Update of the User's profile FIC Telephone Numbers My Weather Data Folder Route Weather Data Regional Weather Data Local Weather Data To the Forecasts and Observations / NOTAM section
Request Generated 04/24/2014 at 03:54:26 UTC . Weather information available at that time is displayed.

METAR/TAF

CALGARY/SPRINGBANK/AB    

METAR CYBW 240300Z AUTO 08005KT 9SM FEW085 SCT150 03/M00 A2959 RMK
SLP047=
METAR CYBW 240200Z AUTO 11007KT 060V130 9SM BKN070 OVC084 06/00 A2956
RMK MAX WND 05024KT AT 0104Z PRESRR SLP034 DENSITY ALT 4200FT=
SPECI CYBW 240104Z AUTO 05020KT 310V060 9SM FEW055 OVC079 07/00 A2953
RMK MAX WND 05024KT AT 0104Z PRESRR SLP023 DENSITY ALT 4400FT=
METAR CYBW 240100Z AUTO 02009G31KT 300V060 9SM OVC080 08/M00 A2954
RMK MAX WND 34031KT AT 0052Z PRESRR SLP023 DENSITY ALT 4400FT=

TAF AMD CYBW 240116Z 2401/2404 05020KT P6SM BKN080 TEMPO 2401/2403
P6SM -SHRA BKN050
BECMG 2401/2403 33012G22KT
FM240300 31012KT P6SM SCT080
RMK FCST BASED ON AUTO OBS. NXT FCST WILL BE ISSUED AT 241245Z=
Your time UTC time
Weather data provided by Environment Canada and NAV CANADA